KCEW/CEW METAR and TAF weather

Enter ICAO airport designator
Station Type Date Time Source
KCEW METAR 2018/01/22 19:53 UTC NOAA

KCEW 221953Z AUTO VRB06KT 9SM -RA OVC009 19/18 A2994 RMK AO2 RAB23 CIG 007V013 SLP138 P0000 T01940178 $


Station Type Date Time Source
KCEW Decoded METAR 2018/01/22 19:53 UTC NOAA

CRESTVIEW SIKES AIRPORT, FL, United States (KCEW) 30-46N 086-31W 55M
Jan 22, 2018 - 02:53 PM EST / 2018.01.22 1953 UTC
Wind: Variable at 7 MPH (6 KT):0
Visibility: 9 mile(s):0
Sky conditions: overcast
Weather: light rain
Precipitation last hour: A trace
Temperature: 66.9 F (19.4 C)
Dew Point: 64.0 F (17.8 C)
Relative Humidity: 90%
Pressure (altimeter): 29.94 in. Hg (1013 hPa)
ob: KCEW 221953Z AUTO VRB06KT 9SM -RA OVC009 19/18 A2994 RMK AO2 RAB23 CIG 007V013 SLP138 P0000 T01940178
cycle: 20

Station Type Date Time Source
KCEW TAF UTC NOAA

Error!


Example: see airport list